createdAt,value
2022-09-05T00:00:14.978Z,16.67
2022-09-05T00:03:10.662Z,16.48
2022-09-05T00:06:01.816Z,16.70
2022-09-05T00:08:52.036Z,16.68
2022-09-05T00:12:10.969Z,16.50
2022-09-05T00:15:18.897Z,16.58
2022-09-05T00:18:11.944Z,16.63
2022-09-05T00:24:32.023Z,16.59
2022-09-05T00:25:00.732Z,16.60
2022-09-05T00:28:25.273Z,16.62
2022-09-05T00:31:56.043Z,16.63
2022-09-05T00:34:06.751Z,16.66
2022-09-05T00:36:46.268Z,16.74
2022-09-05T00:39:36.207Z,16.70
2022-09-05T00:42:22.718Z,16.59
2022-09-05T00:45:02.259Z,16.62
2022-09-05T00:47:30.101Z,16.66
2022-09-05T00:50:06.671Z,16.63
2022-09-05T00:53:07.377Z,16.67
2022-09-05T00:56:11.245Z,16.59
2022-09-05T00:58:44.591Z,16.64
2022-09-05T01:01:37.580Z,16.62
2022-09-05T01:04:11.050Z,16.88
2022-09-05T01:07:03.463Z,16.72
2022-09-05T01:09:53.776Z,16.61
2022-09-05T01:12:52.748Z,16.58
2022-09-05T01:15:32.723Z,16.46
2022-09-05T01:18:19.783Z,16.64
2022-09-05T01:20:56.382Z,16.60
2022-09-05T01:23:46.109Z,16.71
2022-09-05T01:26:37.003Z,16.68
2022-09-05T01:29:29.959Z,16.56
2022-09-05T01:32:00.067Z,16.57
2022-09-05T01:34:40.092Z,16.62
2022-09-05T01:37:32.673Z,16.86
2022-09-05T01:40:17.229Z,16.70
2022-09-05T01:43:23.656Z,16.78
2022-09-05T01:46:27.185Z,16.95
2022-09-05T01:49:02.528Z,17.08
2022-09-05T01:51:53.163Z,17.07
2022-09-05T01:54:29.407Z,17.09
2022-09-05T01:57:23.466Z,17.07
2022-09-05T01:59:55.571Z,17.03
2022-09-05T02:02:41.893Z,16.82
2022-09-05T02:05:51.899Z,16.93
2022-09-05T02:08:28.594Z,17.02
2022-09-05T02:11:08.970Z,16.77
2022-09-05T02:13:36.298Z,16.69
2022-09-05T02:16:22.939Z,16.81
2022-09-05T02:19:09.919Z,16.62
2022-09-05T02:21:55.726Z,16.88
2022-09-05T02:24:37.885Z,17.08
2022-09-05T02:28:04.673Z,17.12
2022-09-05T02:30:47.428Z,17.08
2022-09-05T02:33:47.097Z,17.12
2022-09-05T02:36:25.585Z,17.14
2022-09-05T02:43:15.690Z,17.14
2022-09-05T02:45:11.603Z,17.23
2022-09-05T02:45:17.334Z,17.21
2022-09-05T02:48:12.706Z,17.13
2022-09-05T02:57:23.496Z,16.96
2022-09-05T02:57:37.220Z,17.17
2022-09-05T02:57:43.081Z,17.14
2022-09-05T02:59:52.594Z,17.17
2022-09-05T03:03:01.985Z,17.22
2022-09-05T03:05:37.301Z,17.15
2022-09-05T03:08:13.819Z,16.76
2022-09-05T03:11:20.540Z,16.18
2022-09-05T03:14:10.019Z,16.52
2022-09-05T03:17:19.014Z,16.72
2022-09-05T03:20:25.841Z,16.64
2022-09-05T03:23:07.871Z,16.79
2022-09-05T03:25:48.818Z,16.97
2022-09-05T03:29:05.805Z,16.79
2022-09-05T03:31:36.180Z,16.87
2022-09-05T03:34:17.979Z,16.95
2022-09-05T03:36:48.691Z,16.91
2022-09-05T03:39:42.587Z,17.02
2022-09-05T03:42:23.354Z,17.04
2022-09-05T03:45:12.787Z,17.01
2022-09-05T03:48:28.102Z,17.00
2022-09-05T03:54:51.153Z,17.04
2022-09-05T03:57:25.092Z,16.98
2022-09-05T03:57:42.377Z,16.99
2022-09-05T04:00:11.445Z,16.90
2022-09-05T04:08:08.390Z,16.86
2022-09-05T04:08:24.513Z,16.85
2022-09-05T04:08:57.273Z,16.52
2022-09-05T04:11:40.089Z,16.32
2022-09-05T04:14:29.839Z,16.05
2022-09-05T04:17:09.620Z,16.30
2022-09-05T04:20:13.086Z,16.42
2022-09-05T04:23:25.226Z,16.65
2022-09-05T04:26:39.092Z,16.65
2022-09-05T04:29:16.801Z,16.63
2022-09-05T04:32:19.183Z,16.62
2022-09-05T04:34:49.944Z,16.40
2022-09-05T04:37:48.465Z,16.40
2022-09-05T04:40:36.974Z,16.52
2022-09-05T04:43:35.176Z,16.50
2022-09-05T04:46:18.749Z,16.38
2022-09-05T04:49:14.449Z,16.64
2022-09-05T04:52:00.084Z,16.51
2022-09-05T04:54:31.527Z,16.60
2022-09-05T04:57:14.022Z,16.71
2022-09-05T05:01:50.782Z,16.84
2022-09-05T05:06:08.362Z,16.75
2022-09-05T05:06:12.752Z,16.79
2022-09-05T05:08:57.595Z,16.92
2022-09-05T05:16:56.372Z,17.01
2022-09-05T05:18:08.808Z,17.07
2022-09-05T05:18:53.245Z,16.98
2022-09-05T05:21:15.958Z,16.85
2022-09-05T05:23:50.935Z,17.05
2022-09-05T05:26:31.328Z,17.11
2022-09-05T05:29:10.624Z,17.08
2022-09-05T05:31:41.073Z,17.16
2022-09-05T05:34:26.539Z,17.18
2022-09-05T05:37:03.091Z,17.19
2022-09-05T05:39:34.202Z,17.11
2022-09-05T05:42:20.258Z,17.01
2022-09-05T05:44:59.505Z,17.02
2022-09-05T05:47:44.683Z,17.14
2022-09-05T05:50:36.451Z,17.30
2022-09-05T05:53:50.227Z,17.38
2022-09-05T05:56:49.164Z,17.37
2022-09-05T05:59:25.546Z,17.51
2022-09-05T06:01:59.211Z,17.65
2022-09-05T06:04:45.765Z,17.69
2022-09-05T06:08:46.334Z,17.80
2022-09-05T06:14:56.459Z,18.28
2022-09-05T06:15:01.458Z,17.81
2022-09-05T06:17:36.205Z,18.16
2022-09-05T06:22:10.812Z,18.19
2022-09-05T06:23:47.986Z,18.07
2022-09-05T06:26:29.775Z,18.07
2022-09-05T06:29:12.863Z,18.20
2022-09-05T06:31:55.660Z,18.07
2022-09-05T06:34:35.142Z,18.25
2022-09-05T06:37:28.134Z,18.17
2022-09-05T06:40:31.996Z,18.33
2022-09-05T06:43:31.644Z,18.28
2022-09-05T06:46:09.177Z,18.34
2022-09-05T06:49:29.915Z,18.06
2022-09-05T06:52:29.776Z,17.93
2022-09-05T06:55:33.929Z,18.10
2022-09-05T06:58:13.861Z,18.32
2022-09-05T07:00:56.890Z,18.35
2022-09-05T07:03:52.408Z,18.55
2022-09-05T07:07:01.235Z,18.74
2022-09-05T07:09:46.003Z,18.64
2022-09-05T07:12:30.478Z,18.62
2022-09-05T07:15:13.667Z,18.61
2022-09-05T07:18:19.523Z,18.76
2022-09-05T07:21:16.391Z,19.23
2022-09-05T07:24:12.115Z,19.21
2022-09-05T07:26:52.528Z,18.96
2022-09-05T07:30:00.739Z,19.06
2022-09-05T07:32:32.173Z,18.99
2022-09-05T07:35:02.912Z,18.65
2022-09-05T07:37:41.107Z,18.64
2022-09-05T07:40:26.149Z,18.73
2022-09-05T07:43:35.579Z,18.93
2022-09-05T07:46:11.848Z,19.30
2022-09-05T07:49:03.406Z,18.99
2022-09-05T07:56:49.331Z,18.45
2022-09-05T07:56:53.851Z,18.43
2022-09-05T07:57:31.947Z,18.18
2022-09-05T08:00:24.677Z,18.50
2022-09-05T08:03:01.246Z,18.69
2022-09-05T08:05:37.530Z,18.92
2022-09-05T08:08:11.712Z,18.77
2022-09-05T08:11:22.124Z,18.91
2022-09-05T08:14:38.501Z,19.10
2022-09-05T08:16:47.175Z,19.43
2022-09-05T08:19:46.201Z,19.46
2022-09-05T08:22:23.991Z,19.78
2022-09-05T08:25:17.652Z,20.37
2022-09-05T08:28:03.289Z,20.77
2022-09-05T08:30:38.795Z,20.94
2022-09-05T08:33:19.405Z,20.94
2022-09-05T08:35:50.174Z,21.11
2022-09-05T08:38:21.018Z,21.08
2022-09-05T08:51:14.401Z,20.38
2022-09-05T08:54:13.377Z,20.59
2022-09-05T08:57:10.574Z,20.64
2022-09-05T09:00:18.627Z,21.01
2022-09-05T09:03:09.664Z,20.79
2022-09-05T09:06:13.651Z,20.61
2022-09-05T09:09:10.030Z,20.62
2022-09-05T09:12:02.519Z,20.61
2022-09-05T09:14:39.495Z,20.71
2022-09-05T09:17:16.601Z,20.90
2022-09-05T09:19:53.359Z,20.67
2022-09-05T09:22:54.421Z,20.42
2022-09-05T09:25:36.763Z,20.57
2022-09-05T09:28:46.796Z,20.59
2022-09-05T09:31:11.560Z,20.82
2022-09-05T09:34:18.199Z,21.45
2022-09-05T09:37:00.826Z,21.98
2022-09-05T09:39:43.645Z,22.36
2022-09-05T09:42:33.416Z,22.80
2022-09-05T09:45:35.099Z,22.76
2022-09-05T09:48:38.493Z,22.57
2022-09-05T09:51:17.532Z,22.62
2022-09-05T09:54:32.986Z,22.78
2022-09-05T09:57:23.413Z,23.14
2022-09-05T10:00:24.274Z,23.30
2022-09-05T10:10:05.988Z,23.34
2022-09-05T10:10:46.313Z,22.74
2022-09-05T10:10:49.905Z,22.43
2022-09-05T10:13:29.143Z,23.13
2022-09-05T10:15:56.902Z,23.89
2022-09-05T10:18:43.080Z,23.66
2022-09-05T10:21:45.867Z,23.61
2022-09-05T10:24:36.736Z,22.93
2022-09-05T10:27:18.300Z,23.63
2022-09-05T10:30:07.522Z,24.37
2022-09-05T10:35:13.081Z,24.37
2022-09-05T10:36:23.561Z,24.21
2022-09-05T10:39:13.594Z,23.71
2022-09-05T10:41:44.902Z,23.10
2022-09-05T10:44:14.206Z,22.78
2022-09-05T10:46:53.586Z,23.34
2022-09-05T10:49:29.979Z,23.40
2022-09-05T10:52:18.228Z,23.50
2022-09-05T10:54:50.919Z,24.00
2022-09-05T10:58:01.280Z,24.50
2022-09-05T11:02:24.440Z,23.94
2022-09-05T11:04:07.249Z,23.83
2022-09-05T11:06:48.585Z,24.04
2022-09-05T11:09:38.184Z,24.17
2022-09-05T11:12:36.011Z,24.60
2022-09-05T11:15:22.889Z,24.94
2022-09-05T11:18:55.674Z,24.79
2022-09-05T11:21:39.262Z,24.50
2022-09-05T11:24:33.398Z,24.11
2022-09-05T11:27:43.818Z,23.50
2022-09-05T11:30:29.290Z,23.79
2022-09-05T11:38:30.566Z,24.35
2022-09-05T11:40:08.822Z,23.76
2022-09-05T11:40:09.702Z,24.71
2022-09-05T11:42:33.880Z,24.08
2022-09-05T11:45:30.768Z,24.09
2022-09-05T11:48:23.654Z,23.85
2022-09-05T11:50:53.998Z,24.16
2022-09-05T11:53:49.327Z,24.10
2022-09-05T11:56:45.522Z,24.39
2022-09-05T11:59:33.343Z,24.78
2022-09-05T12:02:26.664Z,24.86
2022-09-05T12:05:50.057Z,23.94
2022-09-05T12:08:23.442Z,24.36
2022-09-05T12:11:09.180Z,24.39
2022-09-05T12:13:51.200Z,24.92
2022-09-05T12:16:48.439Z,24.93
2022-09-05T12:19:34.690Z,24.54
2022-09-05T12:22:16.407Z,25.39
2022-09-05T12:27:35.836Z,25.22
2022-09-05T12:29:33.431Z,25.66
2022-09-05T12:32:59.455Z,25.47
2022-09-05T12:36:10.578Z,26.26
2022-09-05T12:40:45.120Z,26.27
2022-09-05T12:41:43.500Z,26.16
2022-09-05T12:44:38.062Z,25.87
2022-09-05T12:47:16.656Z,25.25
2022-09-05T12:50:14.542Z,25.43
2022-09-05T12:52:52.451Z,24.91
2022-09-05T12:55:34.000Z,25.46
2022-09-05T13:03:01.613Z,25.38
2022-09-05T13:03:08.949Z,25.09
2022-09-05T13:04:20.955Z,24.89
2022-09-05T13:07:09.694Z,24.51
2022-09-05T13:11:18.579Z,23.88
2022-09-05T13:14:52.853Z,24.07
2022-09-05T13:15:40.716Z,23.79
2022-09-05T13:18:22.432Z,23.94
2022-09-05T13:20:56.620Z,23.89
2022-09-05T13:23:33.562Z,23.58
2022-09-05T13:26:21.196Z,23.98
2022-09-05T13:29:09.992Z,23.92
2022-09-05T13:38:03.469Z,24.73
2022-09-05T13:38:07.749Z,25.06
2022-09-05T13:38:19.482Z,25.36
2022-09-05T13:40:27.706Z,25.89
2022-09-05T13:43:21.995Z,26.32
2022-09-05T13:46:19.818Z,26.22
2022-09-05T13:49:29.454Z,25.57
2022-09-05T13:52:26.480Z,25.98
2022-09-05T13:55:03.660Z,25.32
2022-09-05T13:57:44.048Z,25.41
2022-09-05T14:00:27.313Z,25.34
2022-09-05T14:03:37.820Z,24.55
2022-09-05T14:06:30.795Z,24.80
2022-09-05T14:09:36.840Z,24.26
2022-09-05T14:12:37.255Z,24.71
2022-09-05T14:15:24.995Z,25.04
2022-09-05T14:17:53.129Z,24.82
2022-09-05T14:20:49.841Z,25.62
2022-09-05T14:23:21.225Z,25.80
2022-09-05T14:25:59.917Z,26.02
2022-09-05T14:28:31.678Z,26.63
2022-09-05T14:36:33.470Z,27.39
2022-09-05T14:37:52.311Z,27.79
2022-09-05T14:38:00.625Z,28.40
2022-09-05T14:40:02.131Z,29.06
2022-09-05T14:43:26.967Z,28.79
2022-09-05T14:46:13.723Z,27.80
2022-09-05T14:49:11.501Z,27.43
2022-09-05T14:51:39.651Z,27.10
2022-09-05T15:00:33.214Z,30.15
2022-09-05T15:02:48.796Z,31.79
2022-09-05T15:03:04.927Z,32.06
2022-09-05T15:05:41.364Z,32.86
2022-09-05T15:10:14.920Z,33.15
2022-09-05T15:12:21.380Z,33.66
2022-09-05T15:14:07.737Z,33.41
2022-09-05T15:16:43.642Z,33.34
2022-09-05T15:19:12.289Z,33.84
2022-09-05T15:21:41.647Z,34.35
2022-09-05T15:24:17.170Z,34.63
2022-09-05T15:26:54.483Z,33.03
2022-09-05T15:29:27.833Z,32.78
2022-09-05T15:32:21.490Z,33.18
2022-09-05T15:34:55.006Z,33.25
2022-09-05T15:37:31.818Z,32.89
2022-09-05T15:40:24.023Z,33.35
2022-09-05T15:42:58.070Z,31.98
2022-09-05T15:45:29.298Z,31.17
2022-09-05T15:48:19.204Z,30.93
2022-09-05T15:50:52.883Z,29.24
2022-09-05T15:53:29.728Z,28.72
2022-09-05T15:56:14.574Z,27.72
2022-09-05T15:58:53.085Z,27.19
2022-09-05T16:01:59.860Z,26.72
2022-09-05T16:06:53.848Z,25.59
2022-09-05T16:10:33.771Z,25.42
2022-09-05T16:10:48.889Z,25.10
2022-09-05T16:13:15.805Z,24.74
2022-09-05T16:17:44.778Z,24.50
2022-09-05T16:23:19.239Z,23.94
2022-09-05T16:23:36.283Z,23.98
2022-09-05T16:24:59.378Z,23.65
2022-09-05T16:27:43.842Z,23.46
2022-09-05T16:30:19.893Z,23.36
2022-09-05T16:32:51.599Z,23.55
2022-09-05T16:35:25.157Z,23.30
2022-09-05T16:38:06.600Z,23.29
2022-09-05T16:40:39.408Z,23.19
2022-09-05T16:43:21.665Z,22.95
2022-09-05T16:46:23.784Z,22.72
2022-09-05T16:48:57.710Z,22.70
2022-09-05T16:51:35.607Z,22.61
2022-09-05T16:54:17.919Z,22.63
2022-09-05T16:56:56.148Z,22.56
2022-09-05T16:59:30.935Z,22.47
2022-09-05T17:02:11.822Z,22.19
2022-09-05T17:05:05.805Z,22.16
2022-09-05T17:07:51.909Z,21.89
2022-09-05T17:10:25.697Z,21.94
2022-09-05T17:12:55.298Z,21.98
2022-09-05T17:15:31.785Z,22.19
2022-09-05T17:18:21.630Z,21.98
2022-09-05T17:20:55.990Z,21.77
2022-09-05T17:27:19.897Z,21.40
2022-09-05T17:29:35.286Z,21.69
2022-09-05T17:32:50.109Z,21.20
2022-09-05T17:35:42.590Z,21.09
2022-09-05T17:39:02.620Z,20.81
2022-09-05T17:41:44.332Z,21.10
2022-09-05T17:44:28.057Z,21.02
2022-09-05T17:46:57.759Z,20.98
2022-09-05T17:49:46.517Z,20.77
2022-09-05T17:52:16.800Z,20.82
2022-09-05T17:54:49.540Z,20.90
2022-09-05T17:57:34.426Z,20.76
2022-09-05T18:00:49.621Z,20.72
2022-09-05T18:03:36.363Z,20.54
2022-09-05T18:06:18.785Z,20.49
2022-09-05T18:08:46.704Z,20.43
2022-09-05T18:11:25.400Z,20.34
2022-09-05T18:14:04.980Z,20.26
2022-09-05T18:17:36.834Z,20.33
2022-09-05T18:19:46.152Z,20.12
2022-09-05T18:22:30.748Z,19.91
2022-09-05T18:25:30.711Z,19.91
2022-09-05T18:28:22.761Z,19.92
2022-09-05T18:30:52.089Z,19.94
2022-09-05T18:33:53.785Z,19.63
2022-09-05T18:36:25.456Z,19.58
2022-09-05T18:39:26.056Z,19.31
2022-09-05T18:41:53.868Z,19.26
2022-09-05T18:44:25.091Z,19.02
2022-09-05T18:46:56.508Z,19.01
2022-09-05T18:50:26.523Z,18.93
2022-09-05T18:52:48.023Z,18.99
2022-09-05T18:55:46.357Z,18.78
2022-09-05T18:58:26.591Z,18.69
2022-09-05T19:00:56.519Z,18.69
2022-09-05T19:03:34.311Z,18.66
2022-09-05T19:06:36.227Z,18.55
2022-09-05T19:09:08.122Z,18.02
2022-09-05T19:11:53.627Z,18.40
2022-09-05T19:14:36.944Z,18.10
2022-09-05T19:17:17.009Z,17.99
2022-09-05T19:20:33.158Z,17.88
2022-09-05T19:23:13.270Z,17.99
2022-09-05T19:25:46.576Z,17.80
2022-09-05T19:36:51.022Z,17.65
2022-09-05T19:36:58.520Z,17.94
2022-09-05T19:36:58.702Z,17.85
2022-09-05T19:46:45.644Z,17.73
2022-09-05T19:47:36.581Z,17.73
2022-09-05T19:47:50.281Z,17.67
2022-09-05T19:48:26.359Z,17.71
2022-09-05T19:51:16.728Z,17.81
2022-09-05T19:54:04.215Z,17.59
2022-09-05T19:56:59.664Z,17.49
2022-09-05T19:59:40.995Z,17.47
2022-09-05T20:02:20.333Z,17.44
2022-09-05T20:04:53.146Z,17.43
2022-09-05T20:07:24.086Z,17.47
2022-09-05T20:09:53.840Z,17.23
2022-09-05T20:12:27.741Z,17.19
2022-09-05T20:14:55.915Z,17.33
2022-09-05T20:17:28.933Z,17.22
2022-09-05T20:20:08.375Z,17.11
2022-09-05T20:22:49.243Z,17.03
2022-09-05T20:25:36.061Z,16.89
2022-09-05T20:28:17.149Z,16.70
2022-09-05T20:30:48.697Z,16.60
2022-09-05T20:33:25.304Z,16.57
2022-09-05T20:40:56.282Z,16.16
2022-09-05T20:43:16.873Z,16.41
2022-09-05T20:43:24.420Z,16.43
2022-09-05T20:44:48.726Z,16.51
2022-09-05T20:53:32.429Z,16.50
2022-09-05T20:54:13.816Z,16.55
2022-09-05T20:54:26.196Z,16.51
2022-09-05T20:56:32.677Z,16.44
2022-09-05T20:59:01.096Z,16.49
2022-09-05T21:01:32.687Z,16.47
2022-09-05T21:04:03.499Z,16.46
2022-09-05T21:06:34.094Z,16.50
2022-09-05T21:09:22.524Z,16.36
2022-09-05T21:11:58.838Z,16.35
2022-09-05T21:14:29.180Z,16.14
2022-09-05T21:17:14.991Z,16.11
2022-09-05T21:19:53.598Z,16.21
2022-09-05T21:22:24.092Z,16.04
2022-09-05T21:25:22.137Z,15.94
2022-09-05T21:28:06.272Z,15.86
2022-09-05T21:30:40.751Z,15.83
2022-09-05T21:33:22.127Z,15.85
2022-09-05T21:35:59.571Z,15.67
2022-09-05T21:38:40.857Z,15.95
2022-09-05T21:41:09.458Z,15.87
2022-09-05T21:47:43.758Z,15.86
2022-09-05T21:47:47.160Z,15.73
2022-09-05T21:49:23.134Z,15.90
2022-09-05T21:51:51.954Z,15.71
2022-09-05T21:59:17.092Z,15.61
2022-09-05T21:59:29.609Z,15.43
2022-09-05T22:00:15.628Z,14.99
2022-09-05T22:02:49.591Z,15.18
2022-09-05T22:05:17.649Z,15.32
2022-09-05T22:07:45.033Z,15.43
2022-09-05T22:10:12.520Z,15.35
2022-09-05T22:12:40.871Z,15.51
2022-09-05T22:15:27.919Z,15.32
2022-09-05T22:18:17.777Z,15.24
2022-09-05T22:21:01.301Z,15.10
2022-09-05T22:23:40.315Z,14.79
2022-09-05T22:26:08.998Z,15.10
2022-09-05T22:28:38.981Z,14.99
2022-09-05T22:31:07.510Z,15.02
2022-09-05T22:33:36.256Z,15.10
2022-09-05T22:36:04.608Z,14.86
2022-09-05T22:38:33.410Z,14.80
2022-09-05T22:41:00.766Z,14.88
2022-09-05T22:43:33.650Z,14.82
2022-09-05T22:46:01.130Z,14.83
2022-09-05T22:48:28.693Z,14.94
2022-09-05T22:50:57.406Z,14.65
2022-09-05T22:53:24.850Z,14.59
2022-09-05T22:56:02.199Z,14.34
2022-09-05T22:58:30.607Z,14.55
2022-09-05T23:01:01.141Z,14.63
2022-09-05T23:03:28.548Z,14.59
2022-09-05T23:05:56.337Z,14.65
2022-09-05T23:08:23.784Z,14.57
2022-09-05T23:10:51.153Z,14.27
2022-09-05T23:13:18.923Z,14.10
2022-09-05T23:15:46.799Z,14.24
2022-09-05T23:18:14.274Z,13.95
2022-09-05T23:20:42.155Z,13.77
2022-09-05T23:23:09.629Z,13.62
2022-09-05T23:25:37.007Z,13.59
2022-09-05T23:28:06.637Z,13.76
2022-09-05T23:30:36.296Z,13.93
2022-09-05T23:33:09.265Z,14.01
2022-09-05T23:35:37.356Z,14.11
2022-09-05T23:38:09.412Z,14.03
2022-09-05T23:40:38.133Z,14.15
2022-09-05T23:43:06.242Z,14.18
2022-09-05T23:45:33.882Z,14.11
2022-09-05T23:48:01.719Z,14.01
2022-09-05T23:50:29.356Z,13.79
2022-09-05T23:52:56.656Z,13.87
2022-09-05T23:55:24.751Z,13.78
2022-09-05T23:57:57.792Z,13.57
